Elsa — WDB7862 — position and weather

sailwx.info

Track history (hours):
 
Tides and Currents Weather Stations Pressure Air Temp Water Temp Dewpoint Dewpoint Depression Visibility Wind Speed Wind Dir Waves Ship Positions

Elsa

Owner: GP RESOURCES INC., TERMINAL ISLAND, CA. More information available from US FCC via Universal Licensing System and Coast Guard Vessel Documentation Center.

Last reported at 2014-Nov-24 15:33 UTC. Time now 2014-Nov-24 16:27 UTC.
Position N 33°46' W 118°15'.

Length 18 m.

Type: Tug. MMSI: 366949020.

Date/timePositionNaut miles runAvg speedWind from/ knotsBaromVisibWave heightAir tempDewpointWater temp
2014-Nov-24 15:33N 33°46' W 118°15'3 2.4
2014-Nov-24 14:29N 33°44' W 118°14'0 0.0
2014-Nov-24 13:34N 33°44' W 118°14'0 0.0
2014-Nov-24 12:33N 33°44' W 118°14'2 1.5
2014-Nov-24 11:19N 33°44' W 118°16'0 0.0
2014-Nov-23 22:31N 33°44' W 118°16'1 1.5
2014-Nov-23 21:34N 33°45' W 118°16'0 0.0
2014-Nov-23 20:33N 33°45' W 118°16'0 0.0
2014-Nov-23 19:34N 33°45' W 118°16'0 0.0
2014-Nov-23 18:33N 33°45' W 118°16'0 0.1
2014-Nov-23 17:33N 33°45' W 118°16'1 0.1
2014-Nov-22 22:29N 33°44' W 118°16'3 2.8
2014-Nov-22 21:33N 33°45' W 118°13'2 1.5
2014-Nov-22 20:33N 33°46' W 118°14'0 0.0
2014-Nov-22 19:33N 33°46' W 118°14'2 1.9
2014-Nov-22 18:33N 33°44' W 118°13'3 0.1
2014-Nov-21 09:31N 33°45' W 118°16'1 1.3
2014-Nov-21 08:34N 33°46' W 118°16'0 0.0
2014-Nov-21 07:20N 33°46' W 118°16'0 0.0
2014-Nov-21 06:34N 33°46' W 118°16'0 0.0
2014-Nov-21 05:32N 33°46' W 118°16'0 0.0
2014-Nov-21 04:33N 33°46' W 118°16'0 0.0
2014-Nov-21 03:34N 33°46' W 118°16'0 0.0
2014-Nov-21 02:34N 33°46' W 118°16'0 0.0
2014-Nov-21 01:29N 33°46' W 118°16'0 0.0
2014-Nov-21 00:30N 33°46' W 118°16'  
2014-Nov-18 18:31N 33°44' W 118°16'0 0.0
2014-Nov-18 17:31N 33°44' W 118°16'0 0.0
2014-Nov-18 15:20N 33°44' W 118°16'  
Track history (hours):
 
Tides and Currents Weather Stations Pressure Air Temp Water Temp Dewpoint Dewpoint Depression Visibility Wind Speed Wind Dir Waves Ship Positions

Elsa

Owner: GP RESOURCES INC., TERMINAL ISLAND, CA. More information available from US FCC via Universal Licensing System and Coast Guard Vessel Documentation Center.

Last reported at 2014-Nov-24 15:33 UTC. Time now 2014-Nov-24 16:27 UTC.
Position N 33°46' W 118°15'.

Length 18 m.

Type: Tug. MMSI: 366949020.

Date/timePositionNaut miles runAvg speedWind from/ knotsBaromVisibWave heightAir tempDewpointWater temp
2014-Nov-24 15:33N 33°46' W 118°15'3 2.4
2014-Nov-24 14:29N 33°44' W 118°14'0 0.0
2014-Nov-24 13:34N 33°44' W 118°14'0 0.0
2014-Nov-24 12:33N 33°44' W 118°14'2 1.5
2014-Nov-24 11:19N 33°44' W 118°16'0 0.0
2014-Nov-23 22:31N 33°44' W 118°16'1 1.5
2014-Nov-23 21:34N 33°45' W 118°16'0 0.0
2014-Nov-23 20:33N 33°45' W 118°16'0 0.0
2014-Nov-23 19:34N 33°45' W 118°16'0 0.0
2014-Nov-23 18:33N 33°45' W 118°16'0 0.1
2014-Nov-23 17:33N 33°45' W 118°16'1 0.1
2014-Nov-22 22:29N 33°44' W 118°16'3 2.8
2014-Nov-22 21:33N 33°45' W 118°13'2 1.5
2014-Nov-22 20:33N 33°46' W 118°14'0 0.0
2014-Nov-22 19:33N 33°46' W 118°14'2 1.9
2014-Nov-22 18:33N 33°44' W 118°13'3 0.1
2014-Nov-21 09:31N 33°45' W 118°16'1 1.3
2014-Nov-21 08:34N 33°46' W 118°16'0 0.0
2014-Nov-21 07:20N 33°46' W 118°16'0 0.0
2014-Nov-21 06:34N 33°46' W 118°16'0 0.0
2014-Nov-21 05:32N 33°46' W 118°16'0 0.0
2014-Nov-21 04:33N 33°46' W 118°16'0 0.0
2014-Nov-21 03:34N 33°46' W 118°16'0 0.0
2014-Nov-21 02:34N 33°46' W 118°16'0 0.0
2014-Nov-21 01:29N 33°46' W 118°16'0 0.0
2014-Nov-21 00:30N 33°46' W 118°16'  
2014-Nov-18 18:31N 33°44' W 118°16'0 0.0
2014-Nov-18 17:31N 33°44' W 118°16'0 0.0
2014-Nov-18 15:20N 33°44' W 118°16'  

Dump ship's entire track history